Time;durP1;ratioP1;P1;durP2;ratioP2;P2;SDS_P1;SDS_P2;PMS_P1;PMS_P2;Temp;Humidity;BMP_temperature;BMP_pressure;BME280_temperature;BME280_humidity;BME280_pressure;Samples;Min_cycle;Max_cycle;Signal;HPM_P1;HPM_P2
2021/12/13 00:00:13;;;;;;;57.47;24.73;;;8.50;99.90;;;;;;5023125;28;19905;-72
2021/12/13 00:02:55;;;;;;;74.18;28.83;;;8.50;99.90;;;;;;5010802;28;20033;-71
2021/12/13 00:05:34;;;;;;;55.83;25.42;;;8.50;99.90;;;;;;5010956;28;20431;-71
2021/12/13 00:08:05;;;;;;;55.47;24.13;;;8.50;99.90;;;;;;5010286;28;20034;-71
2021/12/13 00:10:39;;;;;;;64.03;27.05;;;8.50;99.90;;;;;;5014983;28;20025;-71
2021/12/13 00:13:16;;;;;;;53.13;23.38;;;8.50;99.90;;;;;;5012459;28;20103;-71
2021/12/13 00:15:52;;;;;;;52.35;22.98;;;8.50;99.90;;;;;;5012366;28;20053;-72
2021/12/13 00:18:28;;;;;;;48.83;21.80;;;8.50;99.90;;;;;;5011588;28;20488;-71
2021/12/13 00:21:08;;;;;;;45.95;21.30;;;8.50;99.90;;;;;;5007186;28;20516;-73
2021/12/13 00:23:48;;;;;;;52.40;22.73;;;8.50;99.90;;;;;;5010603;28;20038;-71
2021/12/13 00:26:34;;;;;;;54.38;23.42;;;8.50;99.90;;;;;;5012716;28;20308;-72
2021/12/13 00:29:09;;;;;;;47.78;22.00;;;8.50;99.90;;;;;;5009966;28;20026;-71
2021/12/13 00:32:07;;;;;;;48.55;21.58;;;8.50;99.90;;;;;;5013683;28;20057;-72
2021/12/13 00:34:41;;;;;;;54.35;22.50;;;8.50;99.90;;;;;;5015960;28;20038;-72
2021/12/13 00:37:20;;;;;;;53.65;20.92;;;8.50;99.90;;;;;;5017838;28;20372;-72
2021/12/13 00:39:48;;;;;;;49.55;21.17;;;8.50;99.90;;;;;;5012080;28;20037;-71
2021/12/13 00:42:20;;;;;;;41.47;18.85;;;8.50;99.90;;;;;;5015350;28;20050;-71
2021/12/13 00:44:52;;;;;;;39.03;17.70;;;8.50;99.90;;;;;;5018115;28;20052;-71
2021/12/13 00:47:30;;;;;;;44.38;19.52;;;8.50;99.90;;;;;;5014362;28;20125;-71
2021/12/13 00:50:08;;;;;;;53.28;21.73;;;8.60;99.90;;;;;;5020912;28;20022;-71
2021/12/13 00:52:37;;;;;;;53.42;21.48;;;8.60;99.90;;;;;;5016918;28;20062;-71
2021/12/13 00:55:12;;;;;;;53.47;22.02;;;8.60;99.90;;;;;;5003342;28;20105;-72
2021/12/13 00:57:43;;;;;;;47.70;21.17;;;8.60;99.90;;;;;;5024471;28;20077;-72
2021/12/13 01:00:20;;;;;;;52.80;21.38;;;8.60;99.90;;;;;;5017084;28;20022;-71
2021/12/13 01:02:59;;;;;;;45.80;19.45;;;8.60;99.90;;;;;;5013559;28;20030;-71
2021/12/13 01:05:40;;;;;;;53.60;21.50;;;8.60;99.90;;;;;;5016829;28;20034;-72
2021/12/13 01:08:29;;;;;;;44.67;18.77;;;8.60;99.90;;;;;;5014624;28;20136;-72
2021/12/13 01:11:47;;;;;;;43.90;19.08;;;8.60;99.90;;;;;;5015427;28;20044;-71
2021/12/13 01:14:29;;;;;;;40.72;18.10;;;8.60;99.90;;;;;;4997426;28;20038;-71
2021/12/13 01:17:07;;;;;;;36.45;15.85;;;8.60;99.90;;;;;;5023819;28;20056;-72
2021/12/13 01:19:52;;;;;;;48.63;18.80;;;8.70;99.90;;;;;;5019726;28;20029;-71
2021/12/13 01:22:40;;;;;;;39.28;17.67;;;8.60;99.90;;;;;;5013191;28;20069;-71
2021/12/13 01:25:39;;;;;;;37.53;15.60;;;8.70;99.90;;;;;;5019872;28;20424;-72
2021/12/13 01:28:26;;;;;;;35.42;15.52;;;8.70;99.90;;;;;;5016715;28;20088;-72
2021/12/13 01:31:02;;;;;;;32.40;14.48;;;8.60;99.90;;;;;;5016574;28;20087;-71
2021/12/13 01:33:29;;;;;;;30.42;15.10;;;8.70;99.90;;;;;;5015936;28;20025;-71
2021/12/13 01:36:00;;;;;;;30.92;13.88;;;8.70;99.90;;;;;;4996542;28;20394;-71
2021/12/13 01:38:36;;;;;;;35.60;14.77;;;8.70;99.90;;;;;;5012223;28;20026;-72
2021/12/13 01:41:14;;;;;;;40.10;16.63;;;8.70;99.90;;;;;;4995682;28;20659;-71
2021/12/13 01:43:45;;;;;;;32.70;14.38;;;8.70;99.90;;;;;;4999809;28;20407;-71
2021/12/13 01:46:10;;;;;;;36.70;16.25;;;8.70;99.90;;;;;;5013692;28;20026;-71
2021/12/13 01:48:40;;;;;;;29.38;12.68;;;8.70;99.90;;;;;;5014227;28;20032;-71
2021/12/13 01:51:11;;;;;;;34.45;14.48;;;8.80;99.90;;;;;;5012256;28;20042;-71
2021/12/13 01:53:40;;;;;;;27.10;12.43;;;8.80;99.90;;;;;;5011728;28;20025;-71
2021/12/13 01:56:34;;;;;;;30.75;13.30;;;8.80;99.90;;;;;;5015856;28;20026;-71
2021/12/13 01:59:04;;;;;;;32.35;12.93;;;8.80;99.90;;;;;;5017902;28;20033;-71
2021/12/13 02:01:30;;;;;;;32.35;13.57;;;8.80;99.90;;;;;;4999545;28;20068;-71
2021/12/13 02:03:59;;;;;;;28.67;12.50;;;8.80;99.90;;;;;;5003079;28;20034;-71
2021/12/13 02:06:30;;;;;;;22.38;10.93;;;8.80;99.90;;;;;;5013106;28;20398;-71
2021/12/13 02:09:00;;;;;;;28.25;13.20;;;8.80;99.90;;;;;;5013563;28;20060;-71
2021/12/13 02:11:31;;;;;;;27.23;13.00;;;8.90;99.90;;;;;;5011668;28;20471;-71
2021/12/13 02:14:07;;;;;;;25.63;11.90;;;8.90;99.90;;;;;;5001281;28;20029;-71
2021/12/13 02:16:58;;;;;;;42.50;14.93;;;8.90;99.90;;;;;;5017302;28;20043;-71
2021/12/13 02:19:44;;;;;;;31.15;12.73;;;8.90;99.90;;;;;;5003466;28;20438;-71
2021/12/13 02:22:36;;;;;;;27.38;11.88;;;8.90;99.90;;;;;;5012465;28;20093;-71
2021/12/13 02:25:11;;;;;;;33.35;12.70;;;8.90;99.90;;;;;;4993293;28;20092;-71
2021/12/13 02:27:40;;;;;;;28.42;11.88;;;8.80;99.90;;;;;;5018009;28;20022;-71
2021/12/13 02:30:33;;;;;;;23.13;10.20;;;8.80;99.90;;;;;;5014244;28;20041;-71
2021/12/13 02:33:00;;;;;;;28.92;12.02;;;8.80;99.90;;;;;;4986771;28;20609;-71
2021/12/13 02:35:30;;;;;;;25.77;12.10;;;8.80;99.90;;;;;;4996222;28;20026;-72
2021/12/13 02:37:58;;;;;;;23.88;10.40;;;8.90;99.90;;;;;;5013489;28;20034;-70
2021/12/13 02:40:24;;;;;;;20.25;8.98;;;8.90;99.90;;;;;;5014847;28;20415;-71
2021/12/13 02:42:50;;;;;;;18.63;8.55;;;8.90;99.90;;;;;;5014069;28;20026;-70
2021/12/13 02:45:29;;;;;;;19.55;9.55;;;8.90;99.90;;;;;;5013127;28;20033;-71
2021/12/13 02:48:10;;;;;;;19.42;8.63;;;8.90;99.90;;;;;;5035780;22;20038;-71
2021/12/13 02:51:02;;;;;;;20.83;8.27;;;8.90;99.90;;;;;;5025776;28;20034;-71
2021/12/13 02:53:40;;;;;;;19.23;8.63;;;8.90;99.90;;;;;;5027652;28;20033;-72
2021/12/13 02:56:06;;;;;;;18.90;8.23;;;8.90;99.90;;;;;;5030640;28;20029;-73
2021/12/13 02:58:34;;;;;;;22.50;9.07;;;8.90;99.90;;;;;;5029241;28;20526;-70
2021/12/13 03:01:14;;;;;;;16.60;8.02;;;9.00;99.90;;;;;;5014184;28;20029;-73
2021/12/13 03:03:44;;;;;;;30.52;12.02;;;9.00;99.90;;;;;;5031877;28;20056;-71
2021/12/13 03:06:14;;;;;;;22.35;10.07;;;9.00;99.90;;;;;;5033329;28;20034;-73
2021/12/13 03:08:56;;;;;;;19.63;9.23;;;9.00;99.90;;;;;;5039851;28;20047;-73
2021/12/13 03:11:28;;;;;;;23.10;9.90;;;9.10;99.90;;;;;;5013805;28;20078;-71
2021/12/13 03:14:16;;;;;;;19.17;9.02;;;9.10;99.90;;;;;;5016332;28;20029;-73
2021/12/13 03:16:50;;;;;;;21.73;9.00;;;9.10;99.90;;;;;;5010946;28;20048;-73
2021/12/13 03:19:42;;;;;;;22.92;9.30;;;9.10;99.90;;;;;;5011977;28;20553;-73
2021/12/13 03:22:14;;;;;;;26.65;10.15;;;9.10;99.90;;;;;;5018721;28;20087;-73
2021/12/13 03:25:02;;;;;;;25.80;10.07;;;9.10;99.90;;;;;;5024842;28;20055;-72
2021/12/13 03:27:55;;;;;;;20.48;8.90;;;9.10;99.90;;;;;;5028107;28;20667;-71
2021/12/13 03:30:47;;;;;;;19.58;8.32;;;9.10;99.90;;;;;;5027265;28;20037;-72
2021/12/13 03:33:15;;;;;;;19.05;8.25;;;9.10;99.90;;;;;;5027165;28;20471;-74
2021/12/13 03:35:48;;;;;;;19.55;8.50;;;9.10;99.90;;;;;;5015318;28;20025;-71
2021/12/13 03:38:31;;;;;;;20.40;8.77;;;9.10;99.90;;;;;;5032948;28;20059;-71
2021/12/13 03:41:01;;;;;;;24.33;8.77;;;9.20;99.90;;;;;;5013468;28;20029;-74
2021/12/13 03:43:38;;;;;;;16.05;7.75;;;9.20;99.90;;;;;;5032760;28;20017;-71
2021/12/13 03:46:08;;;;;;;22.10;8.35;;;9.20;99.90;;;;;;5031918;28;20055;-71
2021/12/13 03:48:37;;;;;;;21.60;8.80;;;9.20;99.90;;;;;;5028446;28;20462;-72
2021/12/13 03:51:12;;;;;;;22.60;8.98;;;9.20;99.90;;;;;;5031760;28;20036;-71
2021/12/13 03:53:38;;;;;;;26.27;10.30;;;9.30;99.90;;;;;;5033015;28;20444;-71
2021/12/13 03:56:11;;;;;;;22.48;9.20;;;9.30;99.90;;;;;;5030990;28;20025;-70
2021/12/13 03:58:41;;;;;;;21.70;8.40;;;9.30;99.90;;;;;;5029093;28;20320;-70
2021/12/13 04:01:34;;;;;;;25.60;9.15;;;9.30;99.90;;;;;;5029410;28;20042;-71
2021/12/13 04:04:02;;;;;;;29.58;11.23;;;9.30;99.90;;;;;;5033892;28;20040;-71
2021/12/13 04:06:28;;;;;;;30.60;10.48;;;9.30;99.90;;;;;;5029157;28;20040;-74
2021/12/13 04:08:58;;;;;;;30.70;11.27;;;9.30;99.90;;;;;;5014419;28;20029;-73
2021/12/13 04:11:27;;;;;;;29.17;10.98;;;9.40;99.90;;;;;;5027302;28;20021;-71
2021/12/13 04:14:10;;;;;;;24.95;9.10;;;9.40;99.90;;;;;;5038688;28;20021;-71
2021/12/13 04:16:49;;;;;;;31.83;11.57;;;9.40;99.90;;;;;;5023948;28;20033;-71
2021/12/13 04:19:22;;;;;;;36.85;11.35;;;9.40;99.90;;;;;;5029771;28;20356;-71
2021/12/13 04:22:02;;;;;;;28.17;10.10;;;9.40;99.90;;;;;;5030546;28;20036;-71
2021/12/13 04:24:43;;;;;;;40.33;12.05;;;9.40;99.90;;;;;;5012748;28;20025;-74
2021/12/13 04:27:17;;;;;;;33.00;11.82;;;9.40;99.90;;;;;;5029579;28;20432;-71
2021/12/13 04:29:45;;;;;;;26.33;10.38;;;9.40;99.90;;;;;;5028259;28;20034;-70
2021/12/13 04:32:26;;;;;;;32.20;11.93;;;9.40;99.90;;;;;;5034908;28;20021;-71
2021/12/13 04:34:58;;;;;;;37.33;12.43;;;9.40;99.90;;;;;;5010833;28;20033;-71
2021/12/13 04:37:27;;;;;;;32.58;11.63;;;9.40;99.90;;;;;;5028764;28;20030;-71
2021/12/13 04:39:58;;;;;;;28.60;10.10;;;9.40;99.90;;;;;;5027170;28;20021;-74
2021/12/13 04:42:25;;;;;;;42.88;11.68;;;9.40;99.90;;;;;;5023525;28;20053;-72
2021/12/13 04:45:05;;;;;;;25.17;10.30;;;9.40;99.90;;;;;;5035418;28;20100;-72
2021/12/13 04:47:55;;;;;;;33.92;12.02;;;9.40;99.90;;;;;;5032536;28;20037;-71
2021/12/13 04:50:46;;;;;;;29.20;10.48;;;9.40;99.90;;;;;;5028267;28;20382;-71
2021/12/13 04:53:20;;;;;;;;;;;9.50;99.90;;;;;;5032139;28;20079;-71
2021/12/13 04:55:48;;;;;;;27.38;9.77;;;9.50;99.90;;;;;;5022534;28;19923;-74
2021/12/13 04:58:16;;;;;;;27.85;10.68;;;9.50;99.90;;;;;;5029532;28;20022;-73
2021/12/13 05:00:48;;;;;;;22.25;8.57;;;9.50;99.90;;;;;;5030242;28;20021;-73
2021/12/13 05:03:16;;;;;;;31.10;11.02;;;9.50;99.90;;;;;;5028841;28;20037;-72
2021/12/13 05:05:41;;;;;;;21.95;8.85;;;9.60;99.90;;;;;;5029722;28;20103;-73
2021/12/13 05:08:16;;;;;;;23.25;9.30;;;9.60;99.90;;;;;;5033673;28;20534;-73
2021/12/13 05:10:46;;;;;;;26.55;9.25;;;9.60;99.90;;;;;;5027917;28;20377;-73
2021/12/13 05:13:21;;;;;;;28.45;9.68;;;9.60;99.90;;;;;;5028242;28;20025;-73
2021/12/13 05:16:09;;;;;;;26.50;10.52;;;9.60;99.90;;;;;;5028415;28;20060;-73
2021/12/13 05:18:44;;;;;;;40.40;13.30;;;9.60;99.90;;;;;;5018994;28;20029;-73
2021/12/13 05:21:13;;;;;;;31.80;12.25;;;9.70;99.90;;;;;;5023571;28;20033;-74
2021/12/13 05:23:47;;;;;;;49.55;16.00;;;9.60;99.90;;;;;;5034834;28;20368;-73
2021/12/13 05:26:26;;;;;;;28.08;11.35;;;9.70;99.90;;;;;;5031981;28;20037;-72
2021/12/13 05:28:52;;;;;;;32.67;13.02;;;9.60;99.90;;;;;;5031582;28;20030;-72
2021/12/13 05:31:22;;;;;;;35.78;13.93;;;9.60;99.90;;;;;;5032101;28;20029;-73
2021/12/13 05:33:58;;;;;;;33.35;12.98;;;9.70;99.90;;;;;;5015744;28;20025;-73
2021/12/13 05:36:33;;;;;;;51.95;15.57;;;9.60;99.90;;;;;;5029406;28;20028;-72
2021/12/13 05:39:14;;;;;;;32.88;12.68;;;9.60;99.90;;;;;;5034410;28;20555;-73
2021/12/13 05:41:50;;;;;;;37.15;13.48;;;9.60;99.90;;;;;;5035409;28;20033;-73
2021/12/13 05:44:34;;;;;;;27.45;10.85;;;9.60;99.90;;;;;;5035034;28;20033;-74
2021/12/13 05:47:07;;;;;;;27.48;11.52;;;9.60;99.90;;;;;;5032885;28;20053;-73
2021/12/13 05:49:43;;;;;;;28.83;11.18;;;9.60;99.90;;;;;;5033755;28;20376;-73
2021/12/13 05:52:16;;;;;;;30.42;11.68;;;9.60;99.90;;;;;;5030642;28;20094;-75
2021/12/13 05:54:51;;;;;;;30.92;13.48;;;9.60;99.90;;;;;;5030521;28;20031;-73
2021/12/13 05:57:25;;;;;;;27.33;12.38;;;9.60;99.90;;;;;;5032767;28;20551;-73
2021/12/13 05:59:54;;;;;;;24.50;11.50;;;9.70;99.90;;;;;;5034529;28;20033;-73
2021/12/13 06:02:37;;;;;;;27.63;10.68;;;9.60;99.90;;;;;;5038672;28;20021;-73
2021/12/13 06:05:14;;;;;;;27.60;11.82;;;9.70;99.90;;;;;;5029844;28;20029;-73
2021/12/13 06:07:41;;;;;;;28.17;12.07;;;9.60;99.90;;;;;;5026246;28;20032;-73
2021/12/13 06:10:13;;;;;;;43.88;14.73;;;9.70;99.90;;;;;;5029287;28;20030;-73
2021/12/13 06:13:01;;;;;;;26.23;12.20;;;9.60;99.90;;;;;;5033092;28;20044;-72
2021/12/13 06:15:30;;;;;;;29.50;11.68;;;9.70;99.90;;;;;;5034017;28;20033;-72
2021/12/13 06:18:05;;;;;;;29.40;12.00;;;9.70;99.90;;;;;;5017690;28;20071;-73
2021/12/13 06:20:37;;;;;;;30.65;13.10;;;9.70;99.90;;;;;;5027872;28;20021;-72
2021/12/13 06:23:28;;;;;;;24.25;11.73;;;9.70;99.90;;;;;;5032350;28;20025;-72
2021/12/13 06:26:11;;;;;;;38.00;14.05;;;9.70;99.90;;;;;;5013373;28;20025;-73
2021/12/13 06:28:52;;;;;;;30.75;12.52;;;9.70;99.90;;;;;;5031624;28;20037;-71
2021/12/13 06:31:20;;;;;;;31.88;13.35;;;9.70;99.90;;;;;;5038135;28;20074;-73
2021/12/13 06:33:51;;;;;;;31.92;12.48;;;9.70;99.90;;;;;;5033609;28;20022;-74
2021/12/13 06:36:45;;;;;;;28.85;11.50;;;9.60;99.90;;;;;;5036515;28;20452;-74
2021/12/13 06:39:22;;;;;;;30.52;11.75;;;9.70;99.90;;;;;;5035684;28;20079;-74
2021/12/13 06:41:50;;;;;;;48.08;15.20;;;9.60;99.90;;;;;;5022453;28;20037;-75
2021/12/13 06:44:39;;;;;;;38.58;14.70;;;9.70;99.90;;;;;;5032129;28;20518;-74
2021/12/13 06:47:09;;;;;;;32.22;12.98;;;9.60;99.90;;;;;;5033616;28;20099;-74
2021/12/13 06:49:35;;;;;;;50.08;15.82;;;9.60;99.90;;;;;;5030700;28;20091;-74
2021/12/13 06:52:12;;;;;;;52.38;15.43;;;9.60;99.90;;;;;;5032181;28;20029;-74
2021/12/13 06:54:58;;;;;;;36.92;13.50;;;9.60;99.90;;;;;;5011497;28;20057;-74
2021/12/13 06:57:36;;;;;;;52.97;15.32;;;9.60;99.90;;;;;;5033829;28;20487;-74
2021/12/13 07:00:17;;;;;;;47.53;14.68;;;9.70;99.90;;;;;;5028635;28;20044;-74
2021/12/13 07:02:47;;;;;;;39.17;14.13;;;9.70;99.90;;;;;;5030438;28;20025;-75
2021/12/13 07:05:19;;;;;;;36.30;13.02;;;9.70;99.90;;;;;;5030756;28;20529;-75
2021/12/13 07:07:56;;;;;;;35.58;13.35;;;9.70;99.90;;;;;;5015907;28;20068;-73
2021/12/13 07:10:26;;;;;;;30.65;11.93;;;9.70;99.90;;;;;;5029537;28;20430;-74
2021/12/13 07:12:57;;;;;;;26.50;11.20;;;9.70;99.90;;;;;;5013627;28;20099;-75
2021/12/13 07:15:26;;;;;;;29.05;11.73;;;9.70;99.90;;;;;;5010790;28;20021;-75
2021/12/13 07:18:06;;;;;;;28.85;11.13;;;9.70;99.90;;;;;;5031021;28;20034;-76
2021/12/13 07:20:49;;;;;;;30.45;10.93;;;9.70;99.90;;;;;;5026885;28;20025;-78
2021/12/13 07:23:15;;;;;;;27.83;9.95;;;9.70;99.90;;;;;;5015179;28;20025;-77
2021/12/13 07:25:45;;;;;;;27.08;10.85;;;9.70;99.90;;;;;;5017003;28;20021;-78
2021/12/13 07:28:25;;;;;;;24.23;10.55;;;9.70;99.90;;;;;;5031565;28;20542;-77
2021/12/13 07:30:53;;;;;;;25.40;10.98;;;9.70;99.90;;;;;;5022952;28;20033;-78
2021/12/13 07:33:24;;;;;;;24.85;10.63;;;9.70;99.90;;;;;;5014678;28;20482;-78
2021/12/13 07:35:49;;;;;;;24.58;10.45;;;9.70;99.90;;;;;;5038566;28;20057;-78
2021/12/13 07:38:18;;;;;;;22.15;10.38;;;9.80;99.90;;;;;;5030027;28;20048;-78
2021/12/13 07:40:53;;;;;;;25.83;10.48;;;9.80;99.90;;;;;;5018495;28;20025;-77
2021/12/13 07:43:50;;;;;;;24.73;11.02;;;9.70;99.90;;;;;;5044624;28;20083;-78
2021/12/13 07:46:22;;;;;;;26.88;11.90;;;9.70;99.90;;;;;;5016699;28;20041;-77
2021/12/13 07:48:49;;;;;;;;;;;9.80;99.90;;;;;;5011759;28;20048;-77
2021/12/13 07:51:20;;;;;;;41.50;15.45;;;9.70;99.90;;;;;;5014485;28;20833;-76
2021/12/13 07:53:56;;;;;;;36.28;13.82;;;9.80;99.90;;;;;;5026168;28;20017;-76
2021/12/13 07:56:28;;;;;;;40.35;14.77;;;9.80;99.90;;;;;;5030149;28;20113;-76
2021/12/13 07:59:06;;;;;;;42.50;16.00;;;9.80;99.90;;;;;;5015098;28;20079;-77
2021/12/13 08:01:36;;;;;;;29.52;13.40;;;9.80;99.90;;;;;;5039483;28;20055;-77
2021/12/13 08:04:18;;;;;;;33.33;14.02;;;9.80;99.90;;;;;;5017035;28;20115;-75
2021/12/13 08:06:58;;;;;;;32.67;14.15;;;9.80;99.90;;;;;;5032325;28;20499;-76
2021/12/13 08:09:27;;;;;;;24.75;12.13;;;9.80;99.90;;;;;;5027879;28;20030;-75
2021/12/13 08:12:00;;;;;;;30.48;12.85;;;9.80;99.90;;;;;;5031281;28;20112;-75
2021/12/13 08:14:36;;;;;;;29.63;12.10;;;9.80;99.90;;;;;;5031491;28;20029;-75
2021/12/13 08:17:18;;;;;;;24.67;12.15;;;9.90;99.90;;;;;;5030878;28;20018;-74
2021/12/13 08:20:04;;;;;;;30.42;13.20;;;9.90;99.90;;;;;;5031626;28;20037;-74
2021/12/13 08:22:31;;;;;;;24.70;12.13;;;9.90;99.90;;;;;;5032922;28;20039;-75
2021/12/13 08:25:06;;;;;;;33.72;12.50;;;9.90;99.90;;;;;;5013281;28;20021;-74
2021/12/13 08:27:36;;;;;;;31.20;12.30;;;9.90;99.90;;;;;;5032079;28;20057;-74
2021/12/13 08:30:08;;;;;;;27.27;11.68;;;9.90;99.90;;;;;;5019078;28;20075;-74
2021/12/13 08:32:34;;;;;;;28.65;12.02;;;9.90;99.90;;;;;;5016152;28;20036;-74
2021/12/13 08:35:03;;;;;;;29.23;12.55;;;9.90;99.90;;;;;;5028694;28;20034;-74
2021/12/13 08:37:38;;;;;;;25.95;12.77;;;9.90;99.90;;;;;;5014604;28;20029;-74
2021/12/13 08:40:26;;;;;;;25.67;11.32;;;10.00;99.90;;;;;;5029975;28;20467;-75
2021/12/13 08:42:55;;;;;;;29.48;13.95;;;10.00;99.90;;;;;;5031821;28;20033;-74
2021/12/13 08:45:27;;;;;;;26.83;12.25;;;9.90;99.90;;;;;;5029976;28;20029;-74
2021/12/13 08:48:01;;;;;;;31.70;13.98;;;10.00;99.90;;;;;;5029374;28;20403;-75
2021/12/13 08:50:40;;;;;;;34.75;15.00;;;10.00;99.90;;;;;;5011584;28;20052;-73
2021/12/13 08:53:15;;;;;;;31.92;13.90;;;10.00;99.90;;;;;;5032983;28;20476;-75
2021/12/13 08:55:51;;;;;;;36.17;16.20;;;10.10;99.90;;;;;;5034165;28;20102;-76
2021/12/13 08:58:19;;;;;;;29.38;13.20;;;10.10;99.90;;;;;;5032296;28;20025;-75
2021/12/13 09:01:03;;;;;;;28.17;13.55;;;10.10;99.90;;;;;;5015068;28;20489;-75
2021/12/13 09:03:37;;;;;;;26.58;12.80;;;10.10;99.90;;;;;;5032666;28;20041;-75
2021/12/13 09:06:08;;;;;;;38.47;15.38;;;10.10;99.90;;;;;;5016611;28;20037;-75
2021/12/13 09:08:43;;;;;;;37.35;16.30;;;10.10;99.90;;;;;;5032700;28;20034;-75
2021/12/13 09:11:33;;;;;;;45.78;18.67;;;10.10;99.90;;;;;;5033737;28;20018;-74
2021/12/13 09:14:07;;;;;;;42.65;17.23;;;10.10;99.90;;;;;;5033462;28;20061;-74
2021/12/13 09:16:45;;;;;;;45.17;18.77;;;10.10;99.90;;;;;;5013004;28;20034;-75
2021/12/13 09:19:24;;;;;;;38.53;16.77;;;10.10;99.90;;;;;;5028950;28;20017;-75
2021/12/13 09:21:58;;;;;;;45.80;18.30;;;10.10;99.90;;;;;;5033202;28;20037;-75
2021/12/13 09:24:35;;;;;;;45.03;18.33;;;10.10;99.90;;;;;;5029587;28;20033;-75
2021/12/13 09:27:18;;;;;;;45.15;18.10;;;10.10;99.90;;;;;;5030893;28;20025;-75
2021/12/13 09:29:52;;;;;;;41.78;16.05;;;10.10;99.90;;;;;;5029146;28;20135;-75
2021/12/13 09:32:18;;;;;;;51.60;19.70;;;10.10;99.90;;;;;;5013875;28;20029;-75
2021/12/13 09:34:45;;;;;;;45.33;17.38;;;10.10;99.90;;;;;;5031792;28;20021;-75
2021/12/13 09:37:12;;;;;;;40.22;16.52;;;10.20;99.90;;;;;;5013745;28;20045;-75
2021/12/13 09:39:38;;;;;;;34.10;16.33;;;10.20;99.90;;;;;;5010500;28;20295;-75
2021/12/13 09:42:15;;;;;;;41.65;16.70;;;10.20;99.90;;;;;;5010581;28;20030;-75
2021/12/13 09:44:55;;;;;;;38.55;16.85;;;10.30;99.90;;;;;;5031293;28;20041;-75
2021/12/13 09:47:29;;;;;;;37.63;16.25;;;10.30;99.90;;;;;;5027328;28;20057;-74
2021/12/13 09:49:55;;;;;;;42.08;18.27;;;10.30;99.90;;;;;;5015339;28;20640;-75
2021/12/13 09:52:47;;;;;;;49.72;18.50;;;10.30;99.90;;;;;;5014960;28;20029;-76
2021/12/13 09:55:18;;;;;;;46.30;17.38;;;10.30;99.90;;;;;;5033575;28;20021;-75
2021/12/13 09:57:52;;;;;;;44.70;17.80;;;10.30;99.90;;;;;;5030764;28;20041;-75
2021/12/13 10:00:30;;;;;;;37.88;16.65;;;10.30;99.90;;;;;;5030675;28;20033;-76
2021/12/13 10:03:00;;;;;;;35.05;15.48;;;10.40;99.90;;;;;;5036400;28;20026;-75
2021/12/13 10:05:31;;;;;;;40.17;16.17;;;10.40;99.90;;;;;;5032701;28;20033;-75
2021/12/13 10:07:59;;;;;;;;;;;10.40;99.90;;;;;;5031809;28;20041;-75
2021/12/13 10:10:30;;;;;;;34.20;16.80;;;10.40;99.90;;;;;;5030022;28;20282;-75
2021/12/13 10:13:03;;;;;;;39.35;16.67;;;10.40;99.90;;;;;;5033325;28;20431;-75
2021/12/13 10:15:37;;;;;;;39.42;16.55;;;10.40;99.90;;;;;;5033543;28;20026;-75
2021/12/13 10:18:17;;;;;;;44.83;16.92;;;10.40;99.90;;;;;;5030273;28;20032;-75
2021/12/13 10:20:51;;;;;;;43.15;19.08;;;10.40;99.90;;;;;;5029975;28;20152;-75
2021/12/13 10:23:23;;;;;;;29.98;13.75;;;10.40;99.90;;;;;;5032985;28;20018;-75
2021/12/13 10:25:51;;;;;;;31.40;16.05;;;10.50;99.90;;;;;;5034357;28;20033;-74
2021/12/13 10:28:22;;;;;;;29.38;13.32;;;10.50;99.90;;;;;;5032778;28;20025;-75
2021/12/13 10:30:53;;;;;;;27.90;14.18;;;10.50;99.90;;;;;;5015397;28;20052;-75
2021/12/13 10:33:21;;;;;;;29.63;14.05;;;10.60;99.90;;;;;;5014882;28;20026;-75
2021/12/13 10:35:47;;;;;;;32.88;14.10;;;10.60;99.90;;;;;;5031896;28;20025;-75
2021/12/13 10:38:18;;;;;;;31.08;13.38;;;10.50;99.90;;;;;;5027024;28;20053;-75
2021/12/13 10:41:08;;;;;;;22.95;12.00;;;10.50;99.90;;;;;;5030180;28;20088;-75
2021/12/13 10:43:46;;;;;;;20.88;11.13;;;10.60;99.90;;;;;;5031414;28;20156;-75
2021/12/13 10:46:28;;;;;;;21.73;12.20;;;10.60;99.90;;;;;;5031152;28;20030;-75
2021/12/13 10:48:58;;;;;;;20.00;10.60;;;10.60;99.90;;;;;;5030947;28;20075;-76
2021/12/13 10:51:34;;;;;;;22.77;12.30;;;10.70;99.90;;;;;;5031012;28;20026;-75
2021/12/13 10:54:06;;;;;;;16.30;9.40;;;10.70;99.90;;;;;;5031850;28;20021;-76
2021/12/13 10:56:37;;;;;;;20.42;10.10;;;10.80;99.90;;;;;;5030966;28;20538;-74
2021/12/13 10:59:08;;;;;;;17.80;9.38;;;10.80;99.90;;;;;;4995642;28;20033;-73
2021/12/13 11:01:39;;;;;;;16.27;9.52;;;10.80;99.90;;;;;;5031547;28;20033;-73
2021/12/13 11:04:09;;;;;;;20.05;10.13;;;10.80;99.90;;;;;;5032169;28;20487;-74
2021/12/13 11:06:37;;;;;;;16.40;9.38;;;10.70;99.90;;;;;;5032135;28;20120;-75
2021/12/13 11:09:05;;;;;;;13.65;8.25;;;10.70;99.90;;;;;;5030525;28;20093;-74
2021/12/13 11:11:38;;;;;;;16.40;8.43;;;10.60;99.90;;;;;;5031742;28;20176;-74
2021/12/13 11:14:10;;;;;;;17.95;9.55;;;10.60;99.90;;;;;;5030834;28;20022;-74
2021/12/13 11:16:43;;;;;;;15.63;8.75;;;10.60;99.90;;;;;;5031239;28;20036;-73
2021/12/13 11:19:15;;;;;;;14.43;8.02;;;10.60;99.90;;;;;;5028924;28;20036;-74
2021/12/13 11:21:45;;;;;;;18.02;9.65;;;10.70;99.90;;;;;;5031117;28;20491;-74
2021/12/13 11:24:22;;;;;;;19.55;9.98;;;10.60;99.90;;;;;;5031823;28;20032;-75
2021/12/13 11:26:54;;;;;;;17.88;9.20;;;10.60;99.90;;;;;;5031895;28;20167;-74
2021/12/13 11:29:20;;;;;;;16.65;9.55;;;10.60;99.90;;;;;;5028418;28;20028;-74
2021/12/13 11:32:21;;;;;;;16.63;10.05;;;10.50;99.90;;;;;;5031071;28;20034;-74
2021/12/13 11:35:04;;;;;;;18.48;10.32;;;10.50;99.90;;;;;;5031845;28;20026;-74
2021/12/13 11:37:55;;;;;;;18.55;10.75;;;10.50;99.90;;;;;;5029113;28;20533;-74
2021/12/13 11:40:59;;;;;;;20.30;10.77;;;10.50;99.90;;;;;;5028745;28;20021;-75
2021/12/13 11:43:47;;;;;;;25.17;13.35;;;10.50;99.90;;;;;;5009804;28;20029;-75
2021/12/13 11:46:50;;;;;;;24.70;12.77;;;10.40;99.90;;;;;;5029105;28;20053;-75
2021/12/13 11:49:45;;;;;;;25.55;13.55;;;10.30;99.90;;;;;;5028505;28;20040;-77
2021/12/13 11:52:34;;;;;;;24.58;13.43;;;10.30;99.90;;;;;;5010737;28;20021;-76
2021/12/13 11:55:29;;;;;;;21.65;11.38;;;10.30;99.90;;;;;;5013332;28;20128;-76
2021/12/13 11:58:28;;;;;;;25.35;12.50;;;10.30;99.90;;;;;;5024789;28;20079;-76
2021/12/13 12:01:28;;;;;;;26.55;13.57;;;10.30;99.90;;;;;;5010150;28;20112;-76
2021/12/13 12:04:32;;;;;;;24.75;13.05;;;10.30;99.90;;;;;;5027886;28;20073;-75
2021/12/13 12:07:21;;;;;;;27.05;14.85;;;10.30;99.90;;;;;;5028444;28;20424;-76
2021/12/13 12:10:32;;;;;;;27.50;15.55;;;10.30;99.90;;;;;;5010226;28;20036;-76
2021/12/13 12:13:11;;;;;;;30.83;16.10;;;10.30;99.90;;;;;;5029211;28;20061;-76
2021/12/13 12:15:39;;;;;;;28.98;15.95;;;10.20;99.90;;;;;;5007689;28;20280;-75
2021/12/13 12:18:09;;;;;;;37.22;17.13;;;10.20;99.90;;;;;;5027493;28;20026;-76
2021/12/13 12:20:44;;;;;;;33.57;17.50;;;10.20;99.90;;;;;;5029055;28;20036;-74
2021/12/13 12:23:32;;;;;;;34.20;17.17;;;10.10;99.90;;;;;;5028567;28;20040;-77
2021/12/13 12:26:02;;;;;;;29.40;16.27;;;10.20;99.90;;;;;;5035201;28;20037;-76
2021/12/13 12:28:32;;;;;;;35.80;17.30;;;10.10;99.90;;;;;;5028453;28;20029;-77
2021/12/13 12:31:00;;;;;;;33.72;16.90;;;10.10;99.90;;;;;;5025016;28;20034;-76
2021/12/13 12:33:33;;;;;;;137.85;88.93;;;10.10;99.90;;;;;;5009938;28;20044;-77
2021/12/13 12:36:06;;;;;;;128.82;73.38;;;10.10;99.90;;;;;;5027718;28;20104;-78
2021/12/13 12:38:54;;;;;;;49.67;30.08;;;10.10;99.90;;;;;;5009365;28;20115;-77
2021/12/13 12:41:38;;;;;;;32.80;18.85;;;10.10;99.90;;;;;;5026078;28;20076;-77
2021/12/13 12:44:04;;;;;;;27.35;16.33;;;10.20;99.90;;;;;;5008676;28;20022;-75
2021/12/13 12:46:40;;;;;;;28.10;14.88;;;10.20;99.90;;;;;;5027420;28;20025;-74
2021/12/13 12:49:13;;;;;;;28.38;15.55;;;10.20;99.90;;;;;;5008121;28;20084;-74
2021/12/13 12:51:39;;;;;;;28.10;14.55;;;10.20;99.90;;;;;;5020224;28;20400;-75
2021/12/13 12:54:12;;;;;;;27.63;15.52;;;10.10;99.90;;;;;;5007831;28;20026;-75
2021/12/13 12:56:41;;;;;;;31.92;15.45;;;10.10;99.90;;;;;;5007849;28;20068;-75
2021/12/13 12:59:38;;;;;;;34.00;17.23;;;10.20;99.90;;;;;;5023944;28;20045;-76
2021/12/13 13:02:14;;;;;;;33.47;16.30;;;10.10;99.90;;;;;;5025218;28;20383;-76
2021/12/13 13:04:40;;;;;;;27.60;15.20;;;10.00;99.90;;;;;;5024800;28;20022;-75
2021/12/13 13:07:16;;;;;;;30.63;16.10;;;10.00;99.90;;;;;;5025635;28;20067;-75
2021/12/13 13:10:26;;;;;;;33.10;17.08;;;10.00;99.90;;;;;;5026030;28;20034;-75
2021/12/13 13:12:57;;;;;;;32.70;16.80;;;9.90;99.90;;;;;;5025075;28;20026;-75
2021/12/13 13:15:29;;;;;;;28.50;14.60;;;9.90;99.90;;;;;;5024535;28;20029;-76
2021/12/13 13:18:03;;;;;;;29.10;15.82;;;10.00;99.90;;;;;;5009199;28;20033;-75
2021/12/13 13:20:38;;;;;;;33.17;17.17;;;10.00;99.90;;;;;;5024979;28;20112;-76